createdAt,value
2023-02-01T00:03:33.548Z,2.41
2023-02-01T00:06:20.676Z,2.53
2023-02-01T00:09:08.025Z,2.53
2023-02-01T00:11:55.264Z,2.38
2023-02-01T00:14:42.372Z,2.53
2023-02-01T00:17:29.563Z,2.41
2023-02-01T00:20:16.725Z,2.50
2023-02-01T00:23:03.832Z,2.46
2023-02-01T00:25:50.916Z,2.36
2023-02-01T00:28:37.984Z,2.41
2023-02-01T00:31:27.007Z,2.46
2023-02-01T00:34:17.720Z,2.39
2023-02-01T00:37:04.837Z,2.40
2023-02-01T00:39:52.020Z,2.33
2023-02-01T00:42:39.310Z,2.42
2023-02-01T00:45:26.386Z,2.38
2023-02-01T00:48:14.050Z,2.40
2023-02-01T00:51:02.008Z,2.31
2023-02-01T00:53:49.350Z,2.30
2023-02-01T00:56:36.515Z,2.24
2023-02-01T00:59:23.563Z,2.31
2023-02-01T01:02:12.012Z,2.28
2023-02-01T01:04:59.120Z,2.20
2023-02-01T01:07:46.224Z,2.41
2023-02-01T01:10:33.731Z,2.30
2023-02-01T01:13:21.313Z,2.30
2023-02-01T01:16:10.499Z,2.28
2023-02-01T01:18:58.236Z,2.28
2023-02-01T01:21:45.302Z,2.33
2023-02-01T01:24:32.429Z,2.43
2023-02-01T01:27:24.091Z,2.31
2023-02-01T01:30:11.630Z,2.27
2023-02-01T01:32:58.704Z,2.40
2023-02-01T01:35:45.785Z,2.32
2023-02-01T01:38:32.806Z,2.40
2023-02-01T01:41:24.659Z,2.41
2023-02-01T01:44:51.520Z,2.40
2023-02-01T01:47:52.061Z,2.33
2023-02-01T01:50:56.280Z,2.15
2023-02-01T01:53:52.551Z,2.14
2023-02-01T01:56:40.537Z,2.28
2023-02-01T01:59:28.320Z,2.17
2023-02-01T02:02:16.387Z,2.39
2023-02-01T02:05:04.355Z,2.27
2023-02-01T02:07:54.376Z,2.45
2023-02-01T02:11:00.225Z,2.49
2023-02-01T02:13:53.319Z,2.43
2023-02-01T02:16:58.797Z,2.27
2023-02-01T02:20:06.061Z,2.52
2023-02-01T02:23:02.137Z,2.33
2023-02-01T02:26:07.583Z,2.48
2023-02-01T02:29:22.439Z,2.41
2023-02-01T02:32:20.102Z,2.18
2023-02-01T02:35:31.488Z,2.38
2023-02-01T02:38:48.745Z,2.53
2023-02-01T02:42:13.601Z,2.60
2023-02-01T02:45:36.419Z,2.49
2023-02-01T02:48:31.510Z,2.51
2023-02-01T02:52:01.198Z,2.59
2023-02-01T02:54:52.061Z,2.70
2023-02-01T02:58:01.647Z,2.78
2023-02-01T03:01:07.980Z,2.66
2023-02-01T03:04:10.042Z,2.67
2023-02-01T03:06:57.202Z,2.67
2023-02-01T03:09:48.786Z,2.66
2023-02-01T03:12:59.183Z,2.67
2023-02-01T03:15:56.966Z,2.66
2023-02-01T03:18:58.306Z,2.79
2023-02-01T03:22:03.124Z,2.91
2023-02-01T03:24:56.616Z,2.63
2023-02-01T03:27:53.480Z,2.72
2023-02-01T03:30:44.319Z,2.68
2023-02-01T03:33:32.659Z,2.82
2023-02-01T03:36:34.118Z,2.91
2023-02-01T03:39:56.301Z,2.84
2023-02-01T03:42:50.457Z,2.74
2023-02-01T03:45:43.729Z,2.89
2023-02-01T03:48:33.119Z,2.95
2023-02-01T03:51:22.468Z,2.89
2023-02-01T03:54:14.584Z,2.97
2023-02-01T03:57:08.023Z,3.00
2023-02-01T03:59:55.294Z,2.89
2023-02-01T04:02:42.441Z,2.76
2023-02-01T04:05:29.590Z,2.73
2023-02-01T04:08:16.896Z,2.83
2023-02-01T04:11:04.006Z,2.83
2023-02-01T04:13:51.081Z,2.85
2023-02-01T04:16:38.213Z,2.81
2023-02-01T04:19:25.282Z,3.06
2023-02-01T04:22:13.422Z,2.82
2023-02-01T04:25:00.490Z,3.02
2023-02-01T04:27:47.810Z,2.91
2023-02-01T04:30:35.036Z,2.87
2023-02-01T04:33:22.154Z,3.01
2023-02-01T04:36:09.455Z,3.04
2023-02-01T04:38:56.575Z,2.90
2023-02-01T04:41:43.936Z,3.05
2023-02-01T04:44:31.400Z,2.97
2023-02-01T04:47:18.455Z,2.89
2023-02-01T04:50:07.005Z,2.95
2023-02-01T04:52:54.115Z,2.89
2023-02-01T04:55:41.523Z,3.14
2023-02-01T04:58:28.613Z,3.10
2023-02-01T05:01:15.742Z,3.07
2023-02-01T05:04:02.825Z,2.93
2023-02-01T05:06:50.204Z,3.12
2023-02-01T05:09:37.289Z,2.93
2023-02-01T05:12:42.970Z,3.10
2023-02-01T05:15:30.837Z,2.99
2023-02-01T05:18:18.006Z,3.08
2023-02-01T05:21:05.254Z,2.96
2023-02-01T05:24:10.657Z,3.05
2023-02-01T05:26:57.848Z,2.95
2023-02-01T05:29:44.931Z,3.12
2023-02-01T05:32:32.311Z,3.20
2023-02-01T05:35:19.980Z,3.33
2023-02-01T05:38:07.131Z,3.10
2023-02-01T05:40:54.220Z,3.27
2023-02-01T05:43:41.415Z,3.22
2023-02-01T05:46:28.785Z,3.08
2023-02-01T05:49:15.890Z,3.17
2023-02-01T05:52:03.446Z,3.32
2023-02-01T05:54:50.616Z,3.19
2023-02-01T05:57:37.792Z,2.96
2023-02-01T06:00:25.352Z,3.31
2023-02-01T06:03:12.688Z,3.35
2023-02-01T06:06:01.461Z,3.24
2023-02-01T06:08:48.605Z,3.20
2023-02-01T06:11:35.703Z,3.37
2023-02-01T06:14:22.892Z,3.00
2023-02-01T06:17:10.006Z,3.02
2023-02-01T06:19:57.102Z,3.37
2023-02-01T06:22:44.207Z,3.54
2023-02-01T06:25:31.386Z,3.25
2023-02-01T06:28:18.602Z,3.42
2023-02-01T06:31:07.919Z,3.57
2023-02-01T06:33:55.242Z,3.27
2023-02-01T06:36:42.313Z,3.56
2023-02-01T06:39:29.584Z,3.49
2023-02-01T06:42:16.654Z,3.68
2023-02-01T06:45:03.847Z,3.34
2023-02-01T06:47:50.929Z,3.41
2023-02-01T06:50:37.980Z,3.56
2023-02-01T06:53:25.507Z,3.82
2023-02-01T06:56:12.612Z,3.63
2023-02-01T06:58:59.815Z,3.70
2023-02-01T07:01:46.977Z,3.65
2023-02-01T07:04:34.257Z,3.74
2023-02-01T07:07:23.572Z,3.61
2023-02-01T07:10:11.530Z,3.71
2023-02-01T07:12:58.947Z,3.55
2023-02-01T07:15:48.679Z,3.64
2023-02-01T07:18:35.869Z,3.59
2023-02-01T07:21:23.545Z,3.46
2023-02-01T07:24:10.626Z,3.65
2023-02-01T07:26:57.709Z,3.51
2023-02-01T07:29:44.758Z,3.65
2023-02-01T07:32:32.033Z,3.52
2023-02-01T07:35:19.219Z,3.70
2023-02-01T07:38:06.357Z,3.79
2023-02-01T07:40:59.659Z,3.58
2023-02-01T07:43:47.322Z,3.76
2023-02-01T07:46:34.367Z,4.01
2023-02-01T07:49:21.592Z,3.91
2023-02-01T07:52:08.845Z,3.74
2023-02-01T07:54:55.903Z,3.84
2023-02-01T07:57:43.183Z,3.89
2023-02-01T08:00:49.104Z,3.94
2023-02-01T08:03:37.868Z,3.96
2023-02-01T08:06:26.196Z,3.97
2023-02-01T08:09:13.400Z,3.99
2023-02-01T08:12:02.363Z,4.03
2023-02-01T08:14:49.405Z,4.05
2023-02-01T08:17:36.536Z,4.11
2023-02-01T08:20:24.446Z,4.11
2023-02-01T08:23:11.713Z,4.18
2023-02-01T08:26:07.376Z,4.22
2023-02-01T08:28:57.698Z,4.25
2023-02-01T08:31:44.962Z,4.11
2023-02-01T08:34:34.155Z,4.37
2023-02-01T08:37:23.482Z,4.28
2023-02-01T08:40:11.922Z,4.29
2023-02-01T08:42:59.052Z,4.17
2023-02-01T08:45:46.214Z,4.34
2023-02-01T08:48:33.910Z,4.46
2023-02-01T08:51:22.751Z,4.07
2023-02-01T08:54:09.813Z,4.28
2023-02-01T08:56:57.566Z,4.13
2023-02-01T08:59:47.767Z,4.15
2023-02-01T09:02:34.759Z,4.28
2023-02-01T09:05:23.480Z,4.32
2023-02-01T09:08:10.829Z,4.17
2023-02-01T09:11:06.000Z,3.94
2023-02-01T09:13:53.297Z,4.10
2023-02-01T09:16:40.615Z,4.12
2023-02-01T09:19:27.740Z,3.69
2023-02-01T09:22:16.883Z,3.94
2023-02-01T09:25:04.325Z,3.66
2023-02-01T09:27:51.571Z,3.64
2023-02-01T09:30:39.370Z,3.62
2023-02-01T09:33:28.810Z,3.67
2023-02-01T09:36:16.042Z,3.67
2023-02-01T09:39:03.769Z,3.85
2023-02-01T09:42:02.826Z,3.80
2023-02-01T09:45:19.088Z,3.38
2023-02-01T09:48:21.209Z,3.80
2023-02-01T09:51:17.064Z,3.70
2023-02-01T09:54:15.189Z,3.90
2023-02-01T09:57:14.600Z,3.73
2023-02-01T10:00:16.474Z,4.11
2023-02-01T10:03:04.245Z,4.07
2023-02-01T10:06:16.149Z,4.03
2023-02-01T10:09:18.379Z,4.14
2023-02-01T10:12:31.179Z,4.19
2023-02-01T10:15:47.693Z,3.80
2023-02-01T10:18:37.579Z,4.26
2023-02-01T10:21:42.674Z,4.22
2023-02-01T10:24:39.372Z,3.98
2023-02-01T10:27:35.947Z,4.17
2023-02-01T10:30:26.253Z,3.79
2023-02-01T10:33:26.663Z,4.07
2023-02-01T10:36:18.213Z,4.33
2023-02-01T10:39:07.837Z,4.37
2023-02-01T10:41:57.009Z,4.45
2023-02-01T10:44:46.688Z,4.50
2023-02-01T10:47:34.032Z,4.66
2023-02-01T10:51:00.184Z,4.79
2023-02-01T10:54:15.483Z,4.34
2023-02-01T10:57:03.145Z,4.68
2023-02-01T10:59:50.349Z,4.32
2023-02-01T11:02:37.451Z,4.30
2023-02-01T11:05:26.744Z,4.56
2023-02-01T11:08:19.929Z,4.32
2023-02-01T11:11:07.819Z,4.74
2023-02-01T11:14:11.763Z,4.21
2023-02-01T11:17:01.767Z,4.45
2023-02-01T11:19:58.252Z,4.32
2023-02-01T11:22:57.196Z,4.35
2023-02-01T11:25:59.139Z,4.09
2023-02-01T11:28:53.430Z,4.13
2023-02-01T11:31:43.023Z,4.13
2023-02-01T11:34:39.794Z,4.00
2023-02-01T11:37:31.557Z,4.51
2023-02-01T11:40:23.021Z,4.39
2023-02-01T11:43:29.166Z,4.36
2023-02-01T11:46:26.132Z,4.39
2023-02-01T11:49:26.329Z,4.68
2023-02-01T11:52:25.351Z,4.73
2023-02-01T11:55:27.864Z,4.21
2023-02-01T11:58:36.535Z,4.29
2023-02-01T12:01:35.437Z,4.71
2023-02-01T12:04:47.371Z,4.92
2023-02-01T12:07:56.322Z,4.39
2023-02-01T12:11:11.495Z,4.68
2023-02-01T12:14:07.473Z,4.96
2023-02-01T12:17:12.722Z,5.24
2023-02-01T12:20:39.072Z,4.84
2023-02-01T12:23:47.269Z,5.07
2023-02-01T12:26:45.903Z,5.24
2023-02-01T12:30:09.300Z,5.11
2023-02-01T12:33:16.775Z,4.80
2023-02-01T12:36:19.023Z,5.00
2023-02-01T12:39:32.317Z,4.86
2023-02-01T12:42:24.848Z,4.95
2023-02-01T12:45:25.015Z,4.79
2023-02-01T12:48:12.067Z,5.09
2023-02-01T12:51:05.672Z,4.87
2023-02-01T12:54:03.369Z,4.48
2023-02-01T12:57:04.178Z,4.57
2023-02-01T12:59:58.628Z,4.39
2023-02-01T13:02:50.876Z,4.42
2023-02-01T13:05:57.870Z,4.17
2023-02-01T13:08:55.227Z,4.04
2023-02-01T13:11:46.300Z,4.01
2023-02-01T13:14:33.351Z,4.04
2023-02-01T13:17:32.360Z,4.08
2023-02-01T13:20:25.840Z,3.89
2023-02-01T13:23:26.179Z,3.86
2023-02-01T13:26:13.435Z,3.97
2023-02-01T13:29:07.496Z,3.93
2023-02-01T13:32:22.708Z,3.71
2023-02-01T13:36:03.876Z,3.98
2023-02-01T13:39:24.573Z,3.92
2023-02-01T13:42:23.904Z,3.75
2023-02-01T13:45:46.329Z,3.91
2023-02-01T13:48:53.355Z,3.94
2023-02-01T13:51:51.989Z,3.68
2023-02-01T13:54:41.361Z,4.10
2023-02-01T13:57:50.033Z,3.81
2023-02-01T14:00:40.053Z,3.90
2023-02-01T14:03:52.168Z,3.84
2023-02-01T14:06:44.815Z,3.97
2023-02-01T14:09:34.550Z,4.03
2023-02-01T14:12:40.593Z,3.95
2023-02-01T14:15:29.246Z,4.05
2023-02-01T14:18:35.009Z,4.15
2023-02-01T14:21:34.439Z,4.12
2023-02-01T14:24:42.863Z,4.26
2023-02-01T14:27:37.013Z,4.08
2023-02-01T14:30:24.993Z,4.13
2023-02-01T14:33:19.737Z,4.13
2023-02-01T14:36:14.981Z,4.29
2023-02-01T14:39:02.422Z,4.25
2023-02-01T14:41:55.277Z,4.19
2023-02-01T14:44:58.687Z,4.27
2023-02-01T14:47:50.884Z,4.21
2023-02-01T14:50:42.006Z,4.16
2023-02-01T14:53:35.697Z,4.19
2023-02-01T14:56:23.310Z,4.17
2023-02-01T14:59:17.108Z,4.21
2023-02-01T15:02:21.680Z,4.14
2023-02-01T15:05:26.421Z,4.25
2023-02-01T15:08:20.446Z,4.01
2023-02-01T15:11:13.581Z,4.15
2023-02-01T15:14:01.696Z,4.22
2023-02-01T15:16:54.817Z,4.20
2023-02-01T15:19:56.983Z,4.05
2023-02-01T15:22:54.532Z,3.96
2023-02-01T15:25:41.660Z,4.06
2023-02-01T15:28:28.934Z,4.11
2023-02-01T15:31:17.116Z,3.87
2023-02-01T15:34:05.150Z,4.05
2023-02-01T15:37:07.646Z,4.03
2023-02-01T15:40:11.353Z,4.01
2023-02-01T15:43:00.465Z,4.02
2023-02-01T15:45:48.161Z,4.03
2023-02-01T15:48:41.913Z,3.81
2023-02-01T15:51:33.732Z,3.92
2023-02-01T15:54:27.238Z,3.76
2023-02-01T15:57:23.559Z,3.77
2023-02-01T16:00:35.904Z,3.81
2023-02-01T16:03:49.900Z,3.67
2023-02-01T16:06:39.863Z,3.92
2023-02-01T16:09:40.880Z,3.98
2023-02-01T16:12:37.364Z,3.95
2023-02-01T16:15:24.874Z,3.66
2023-02-01T16:18:13.404Z,3.76
2023-02-01T16:21:00.500Z,3.77
2023-02-01T16:23:52.637Z,3.88
2023-02-01T16:26:40.025Z,3.97
2023-02-01T16:29:30.137Z,3.71
2023-02-01T16:32:22.882Z,3.72
2023-02-01T16:35:21.315Z,3.83
2023-02-01T16:38:14.580Z,3.90
2023-02-01T16:41:03.871Z,3.88
2023-02-01T16:43:53.255Z,3.72
2023-02-01T16:46:46.232Z,3.66
2023-02-01T16:49:34.974Z,3.59
2023-02-01T16:52:26.673Z,3.38
2023-02-01T16:55:18.985Z,3.57
2023-02-01T16:58:06.328Z,3.25
2023-02-01T17:00:54.371Z,3.07
2023-02-01T17:03:42.572Z,3.30
2023-02-01T17:06:31.027Z,3.29
2023-02-01T17:09:18.237Z,3.19
2023-02-01T17:12:06.570Z,3.27
2023-02-01T17:14:54.873Z,3.32
2023-02-01T17:17:43.951Z,3.30
2023-02-01T17:20:33.278Z,3.33
2023-02-01T17:23:21.197Z,3.27
2023-02-01T17:26:12.051Z,3.21
2023-02-01T17:28:59.644Z,3.41
2023-02-01T17:32:00.773Z,3.43
2023-02-01T17:34:48.941Z,3.48
2023-02-01T17:37:37.195Z,3.33
2023-02-01T17:40:25.428Z,3.23
2023-02-01T17:43:31.710Z,3.33
2023-02-01T17:46:21.215Z,3.20
2023-02-01T17:49:09.007Z,3.36
2023-02-01T17:51:59.067Z,3.50
2023-02-01T17:54:47.830Z,3.42
2023-02-01T17:57:35.471Z,3.32
2023-02-01T18:00:23.190Z,3.43
2023-02-01T18:03:27.694Z,3.37
2023-02-01T18:06:18.299Z,3.30
2023-02-01T18:09:06.665Z,3.48
2023-02-01T18:11:56.328Z,3.22
2023-02-01T18:14:44.453Z,3.52
2023-02-01T18:17:32.025Z,3.41
2023-02-01T18:20:27.896Z,3.37
2023-02-01T18:23:22.345Z,3.42
2023-02-01T18:26:16.879Z,3.51
2023-02-01T18:29:04.915Z,3.42
2023-02-01T18:31:53.154Z,3.45
2023-02-01T18:34:44.233Z,3.58
2023-02-01T18:37:32.178Z,3.38
2023-02-01T18:40:38.195Z,3.30
2023-02-01T18:43:27.270Z,3.50
2023-02-01T18:46:16.926Z,3.53
2023-02-01T18:49:06.038Z,3.79
2023-02-01T18:51:54.416Z,3.78
2023-02-01T18:54:57.676Z,3.57
2023-02-01T18:57:47.817Z,3.80
2023-02-01T19:00:38.413Z,3.74
2023-02-01T19:03:27.541Z,3.80
2023-02-01T19:06:15.963Z,3.99
2023-02-01T19:09:04.078Z,4.09
2023-02-01T19:11:52.078Z,3.94
2023-02-01T19:14:39.986Z,4.13
2023-02-01T19:17:31.114Z,4.07
2023-02-01T19:20:25.326Z,3.91
2023-02-01T19:23:19.809Z,3.92
2023-02-01T19:26:19.757Z,3.80
2023-02-01T19:29:08.338Z,3.71
2023-02-01T19:31:56.235Z,3.87
2023-02-01T19:34:43.994Z,3.68
2023-02-01T19:37:32.707Z,3.58
2023-02-01T19:40:21.659Z,3.44
2023-02-01T19:43:13.454Z,3.77
2023-02-01T19:46:03.562Z,3.64
2023-02-01T19:48:51.349Z,3.62
2023-02-01T19:51:41.227Z,3.67
2023-02-01T19:54:29.339Z,3.59
2023-02-01T19:57:18.810Z,3.65
2023-02-01T20:00:08.912Z,3.65
2023-02-01T20:02:55.942Z,3.54
2023-02-01T20:05:45.512Z,3.65
2023-02-01T20:08:34.242Z,3.52
2023-02-01T20:11:26.490Z,3.27
2023-02-01T20:14:15.119Z,3.58
2023-02-01T20:17:05.231Z,3.68
2023-02-01T20:19:53.280Z,3.75
2023-02-01T20:22:41.447Z,3.65
2023-02-01T20:25:30.155Z,3.71
2023-02-01T20:28:19.101Z,3.69
2023-02-01T20:31:08.563Z,3.69
2023-02-01T20:33:58.476Z,3.91
2023-02-01T20:36:46.667Z,3.59
2023-02-01T20:39:34.959Z,3.58
2023-02-01T20:42:24.210Z,3.66
2023-02-01T20:45:18.161Z,3.77
2023-02-01T20:48:07.729Z,3.70
2023-02-01T20:50:59.209Z,3.82
2023-02-01T20:53:54.319Z,4.14
2023-02-01T20:56:42.746Z,4.08
2023-02-01T20:59:31.067Z,3.93
2023-02-01T21:02:20.827Z,3.92
2023-02-01T21:05:09.990Z,3.84
2023-02-01T21:07:57.361Z,3.93
2023-02-01T21:10:46.197Z,3.92
2023-02-01T21:16:08.316Z,4.02
2023-02-01T21:19:01.162Z,3.99
2023-02-01T21:21:48.811Z,3.87
2023-02-01T21:24:35.994Z,3.88
2023-02-01T21:27:23.163Z,3.91
2023-02-01T21:30:11.160Z,3.74
2023-02-01T21:33:01.078Z,3.63
2023-02-01T21:35:50.987Z,3.77
2023-02-01T21:38:38.390Z,3.65
2023-02-01T21:41:43.847Z,3.79
2023-02-01T21:44:31.100Z,3.73
2023-02-01T21:47:25.923Z,3.44
2023-02-01T21:50:19.488Z,3.48
2023-02-01T21:53:07.083Z,3.33
2023-02-01T21:55:54.166Z,3.26
2023-02-01T21:58:42.160Z,3.30
2023-02-01T22:01:29.507Z,3.36
2023-02-01T22:04:16.618Z,3.27
2023-02-01T22:07:03.678Z,3.21
2023-02-01T22:09:50.753Z,3.31
2023-02-01T22:12:37.863Z,3.24
2023-02-01T22:15:25.223Z,3.35
2023-02-01T22:18:12.661Z,3.43
2023-02-01T22:21:01.016Z,3.36
2023-02-01T22:23:55.638Z,3.50
2023-02-01T22:26:43.437Z,3.44
2023-02-01T22:29:30.590Z,3.25
2023-02-01T22:32:17.821Z,3.36
2023-02-01T22:35:05.558Z,3.36
2023-02-01T22:37:52.676Z,3.22
2023-02-01T22:40:39.805Z,3.44
2023-02-01T22:43:27.813Z,3.30
2023-02-01T22:46:17.871Z,3.08
2023-02-01T22:49:05.566Z,3.40
2023-02-01T22:51:52.829Z,3.14
2023-02-01T22:54:41.398Z,3.07
2023-02-01T22:57:28.451Z,3.23
2023-02-01T23:00:15.774Z,3.25
2023-02-01T23:03:02.979Z,3.24
2023-02-01T23:05:50.117Z,3.12
2023-02-01T23:08:39.539Z,2.96
2023-02-01T23:11:27.327Z,2.94
2023-02-01T23:14:15.600Z,3.13
2023-02-01T23:17:02.680Z,2.92
2023-02-01T23:19:50.628Z,2.72
2023-02-01T23:22:37.633Z,3.04
2023-02-01T23:25:24.970Z,2.87
2023-02-01T23:28:12.896Z,2.83
2023-02-01T23:31:00.164Z,2.87
2023-02-01T23:33:49.118Z,2.94
2023-02-01T23:36:36.274Z,2.94
2023-02-01T23:39:23.638Z,3.04
2023-02-01T23:42:10.681Z,2.92
2023-02-01T23:44:57.897Z,3.03
2023-02-01T23:47:44.952Z,2.87
2023-02-01T23:50:32.027Z,2.91
2023-02-01T23:53:19.112Z,2.86
2023-02-01T23:56:07.442Z,2.91
2023-02-01T23:58:56.934Z,3.04
